QFA121 YSSY-NZQN
Flight info
| Callsign | QFA121 |
|---|---|
| Flight time | 2h 31m |
| Altitude | 35000 |
| Route | OPTIC Y84 TONIM P766 ADKOS |
| Aircraft | B738/M-SDE2E3FGHIRWXY/LB1 |
Departure
| Time | 2026-04-25 01:31 |
|---|---|
| Airport | Sydney Kingsford Smith International Airport (YSSY) |
Arrival
| Time | 2026-04-25 04:02 |
|---|---|
| Airport | Queenstown Airport (NZQN) |
| Time | Latitude | Longitude | Altitude | Speed | Heading |
|---|---|---|---|---|---|
| 2026-04-25 00:55 | -33.93427 | 151.16988 | 29 ft | 0 kts | 14° |
| 2026-04-25 01:12 | -33.93438 | 151.16985 | 24 ft | 2 kts | 14° |
| 2026-04-25 01:12 | -33.93451 | 151.16981 | 29 ft | 2 kts | 14° |
| 2026-04-25 01:12 | -33.93467 | 151.16976 | 29 ft | 2 kts | 11° |
| 2026-04-25 01:12 | -33.93484 | 151.16973 | 29 ft | 2 kts | 11° |
| 2026-04-25 01:13 | -33.93501 | 151.16970 | 29 ft | 3 kts | 336° |
| 2026-04-25 01:13 | -33.93511 | 151.16984 | 29 ft | 2 kts | 259° |
| 2026-04-25 01:13 | -33.93509 | 151.16994 | 29 ft | 0 kts | 257° |
| 2026-04-25 01:16 | -33.93509 | 151.16995 | 29 ft | 0 kts | 257° |
| 2026-04-25 01:17 | -33.93512 | 151.16974 | 29 ft | 8 kts | 265° |
| 2026-04-25 01:17 | -33.93475 | 151.16916 | 29 ft | 10 kts | 343° |
| 2026-04-25 01:17 | -33.93403 | 151.16895 | 29 ft | 11 kts | 347° |
| 2026-04-25 01:18 | -33.93316 | 151.16904 | 29 ft | 14 kts | 30° |
| 2026-04-25 01:18 | -33.93289 | 151.17001 | 29 ft | 13 kts | 115° |
| 2026-04-25 01:18 | -33.93360 | 151.17064 | 29 ft | 13 kts | 158° |
| 2026-04-25 01:18 | -33.93439 | 151.17101 | 28 ft | 12 kts | 127° |
| 2026-04-25 01:19 | -33.93439 | 151.17168 | 27 ft | 5 kts | 78° |
| 2026-04-25 01:19 | -33.93438 | 151.17174 | 27 ft | 0 kts | 77° |
| 2026-04-25 01:19 | -33.93437 | 151.17180 | 27 ft | 2 kts | 77° |
| 2026-04-25 01:19 | -33.93425 | 151.17244 | 26 ft | 16 kts | 77° |
| 2026-04-25 01:20 | -33.93402 | 151.17375 | 28 ft | 15 kts | 78° |
| 2026-04-25 01:20 | -33.93379 | 151.17495 | 29 ft | 14 kts | 77° |
| 2026-04-25 01:20 | -33.93399 | 151.17594 | 29 ft | 13 kts | 163° |
| 2026-04-25 01:20 | -33.93482 | 151.17584 | 29 ft | 12 kts | 170° |
| 2026-04-25 01:21 | -33.93562 | 151.17604 | 29 ft | 12 kts | 168° |
| 2026-04-25 01:21 | -33.93650 | 151.17638 | 29 ft | 16 kts | 155° |
| 2026-04-25 01:21 | -33.93761 | 151.17690 | 29 ft | 17 kts | 169° |
| 2026-04-25 01:21 | -33.93852 | 151.17743 | 29 ft | 13 kts | 124° |
| 2026-04-25 01:22 | -33.93932 | 151.17786 | 28 ft | 13 kts | 166° |
| 2026-04-25 01:22 | -33.94018 | 151.17810 | 28 ft | 12 kts | 168° |
| 2026-04-25 01:22 | -33.94106 | 151.17832 | 28 ft | 15 kts | 167° |
| 2026-04-25 01:22 | -33.94242 | 151.17867 | 29 ft | 22 kts | 168° |
| 2026-04-25 01:23 | -33.94387 | 151.17905 | 29 ft | 18 kts | 167° |
| 2026-04-25 01:23 | -33.94458 | 151.17904 | 29 ft | 7 kts | 203° |
| 2026-04-25 01:23 | -33.94512 | 151.17880 | 29 ft | 10 kts | 179° |
| 2026-04-25 01:23 | -33.94597 | 151.17900 | 29 ft | 13 kts | 168° |
| 2026-04-25 01:24 | -33.94684 | 151.17923 | 29 ft | 13 kts | 167° |
| 2026-04-25 01:24 | -33.94779 | 151.17947 | 29 ft | 17 kts | 168° |
| 2026-04-25 01:24 | -33.94925 | 151.17986 | 29 ft | 24 kts | 168° |
| 2026-04-25 01:24 | -33.95067 | 151.18023 | 29 ft | 14 kts | 160° |
| 2026-04-25 01:25 | -33.95098 | 151.18111 | 29 ft | 12 kts | 79° |
| 2026-04-25 01:25 | -33.95079 | 151.18221 | 29 ft | 15 kts | 76° |
| 2026-04-25 01:25 | -33.95058 | 151.18340 | 29 ft | 15 kts | 79° |
| 2026-04-25 01:25 | -33.95041 | 151.18457 | 29 ft | 14 kts | 96° |
| 2026-04-25 01:26 | -33.95107 | 151.18534 | 29 ft | 13 kts | 140° |
| 2026-04-25 01:26 | -33.95181 | 151.18614 | 29 ft | 17 kts | 137° |
| 2026-04-25 01:26 | -33.95294 | 151.18709 | 29 ft | 22 kts | 159° |
| 2026-04-25 01:26 | -33.95452 | 151.18755 | 29 ft | 25 kts | 166° |
| 2026-04-25 01:27 | -33.95625 | 151.18799 | 29 ft | 25 kts | 168° |
| 2026-04-25 01:27 | -33.95791 | 151.18842 | 29 ft | 25 kts | 167° |
| 2026-04-25 01:27 | -33.95970 | 151.18889 | 29 ft | 26 kts | 167° |
| 2026-04-25 01:28 | -33.96306 | 151.18976 | 29 ft | 25 kts | 168° |
| 2026-04-25 01:28 | -33.96495 | 151.19025 | 29 ft | 29 kts | 168° |
| 2026-04-25 01:28 | -33.96682 | 151.19072 | 29 ft | 24 kts | 172° |
| 2026-04-25 01:28 | -33.96822 | 151.19066 | 29 ft | 19 kts | 171° |
| 2026-04-25 01:29 | -33.96951 | 151.19099 | 29 ft | 20 kts | 169° |
| 2026-04-25 01:29 | -33.97085 | 151.19134 | 29 ft | 17 kts | 165° |
| 2026-04-25 01:29 | -33.97121 | 151.19220 | 29 ft | 13 kts | 81° |
| 2026-04-25 01:29 | -33.97102 | 151.19332 | 26 ft | 16 kts | 77° |
| 2026-04-25 01:30 | -33.97029 | 151.19367 | 24 ft | 17 kts | 339° |
| 2026-04-25 01:30 | -33.96685 | 151.19275 | 22 ft | 88 kts | 348° |
| 2026-04-25 01:30 | -33.95871 | 151.19066 | 27 ft | 150 kts | 349° |
| 2026-04-25 01:30 | -33.94756 | 151.18780 | 465 ft | 171 kts | 349° |
| 2026-04-25 01:31 | -33.93518 | 151.18779 | 1151 ft | 179 kts | 27° |
| 2026-04-25 01:31 | -33.92720 | 151.19859 | 2027 ft | 183 kts | 75° |
| 2026-04-25 01:31 | -33.92774 | 151.21392 | 2856 ft | 187 kts | 105° |
| 2026-04-25 01:31 | -33.93280 | 151.22842 | 3680 ft | 188 kts | 114° |
| 2026-04-25 01:32 | -33.93666 | 151.23780 | 4214 ft | 189 kts | 112° |
| 2026-04-25 01:32 | -33.93854 | 151.25964 | 4795 ft | 214 kts | 85° |
| 2026-04-25 01:32 | -33.93800 | 151.27188 | 4924 ft | 229 kts | 86° |
| 2026-04-25 01:32 | -33.94177 | 151.29783 | 5385 ft | 248 kts | 123° |
| 2026-04-25 01:33 | -33.94912 | 151.30847 | 5746 ft | 251 kts | 132° |
| 2026-04-25 01:33 | -33.96156 | 151.32437 | 6044 ft | 270 kts | 133° |
| 2026-04-25 01:33 | -33.97469 | 151.34108 | 6686 ft | 277 kts | 133° |
| 2026-04-25 01:33 | -33.98791 | 151.35790 | 7523 ft | 276 kts | 133° |
| 2026-04-25 01:34 | -34.00114 | 151.37475 | 8345 ft | 278 kts | 133° |
| 2026-04-25 01:34 | -34.01449 | 151.39175 | 9115 ft | 281 kts | 133° |
| 2026-04-25 01:34 | -34.02797 | 151.40895 | 9868 ft | 284 kts | 133° |
| 2026-04-25 01:34 | -34.04170 | 151.42648 | 10458 ft | 296 kts | 133° |
| 2026-04-25 01:35 | -34.05641 | 151.44528 | 10615 ft | 320 kts | 133° |
| 2026-04-25 01:35 | -34.07219 | 151.46546 | 10789 ft | 342 kts | 133° |
| 2026-04-25 01:35 | -34.08898 | 151.48696 | 10955 ft | 362 kts | 133° |
| 2026-04-25 01:35 | -34.10653 | 151.50943 | 11359 ft | 372 kts | 133° |
| 2026-04-25 01:36 | -34.12441 | 151.53235 | 11957 ft | 376 kts | 133° |
| 2026-04-25 01:36 | -34.14240 | 151.55545 | 12614 ft | 379 kts | 133° |
| 2026-04-25 01:36 | -34.16051 | 151.57870 | 13270 ft | 381 kts | 133° |
| 2026-04-25 01:36 | -34.17878 | 151.60217 | 13884 ft | 385 kts | 133° |
| 2026-04-25 01:37 | -34.19716 | 151.62581 | 14462 ft | 388 kts | 133° |
| 2026-04-25 01:37 | -34.21575 | 151.64970 | 15021 ft | 391 kts | 133° |
| 2026-04-25 01:37 | -34.23442 | 151.67372 | 15583 ft | 394 kts | 133° |
| 2026-04-25 01:37 | -34.25324 | 151.69795 | 16164 ft | 396 kts | 133° |
| 2026-04-25 01:38 | -34.27214 | 151.72230 | 16719 ft | 399 kts | 133° |
| 2026-04-25 01:38 | -34.29117 | 151.74689 | 17257 ft | 402 kts | 133° |
| 2026-04-25 01:38 | -34.31032 | 151.77166 | 17805 ft | 404 kts | 133° |
| 2026-04-25 01:38 | -34.32960 | 151.79656 | 18338 ft | 407 kts | 133° |
| 2026-04-25 01:39 | -34.34902 | 151.82168 | 18839 ft | 410 kts | 133° |
| 2026-04-25 01:39 | -34.36857 | 151.84698 | 19303 ft | 412 kts | 133° |
| 2026-04-25 01:39 | -34.38820 | 151.87240 | 19784 ft | 414 kts | 133° |
| 2026-04-25 01:39 | -34.40778 | 151.89813 | 20264 ft | 416 kts | 131° |
| 2026-04-25 01:40 | -34.42669 | 151.92474 | 20737 ft | 418 kts | 130° |
| 2026-04-25 01:40 | -34.44528 | 151.95188 | 21193 ft | 420 kts | 129° |
| 2026-04-25 01:40 | -34.46385 | 151.97936 | 21627 ft | 422 kts | 129° |
| 2026-04-25 01:40 | -34.48248 | 152.00696 | 22054 ft | 424 kts | 129° |
| 2026-04-25 01:41 | -34.50126 | 152.03470 | 22479 ft | 426 kts | 129° |
| 2026-04-25 01:41 | -34.52015 | 152.06252 | 22883 ft | 429 kts | 129° |
| 2026-04-25 01:41 | -34.53918 | 152.09047 | 23281 ft | 431 kts | 129° |
| 2026-04-25 01:41 | -34.55834 | 152.11856 | 23667 ft | 433 kts | 129° |
| 2026-04-25 01:42 | -34.57760 | 152.14680 | 24030 ft | 436 kts | 129° |
| 2026-04-25 01:42 | -34.59696 | 152.17517 | 24356 ft | 437 kts | 129° |
| 2026-04-25 01:42 | -34.61637 | 152.20365 | 24689 ft | 439 kts | 129° |
| 2026-04-25 01:42 | -34.63586 | 152.23226 | 24999 ft | 440 kts | 129° |
| 2026-04-25 01:43 | -34.65542 | 152.26099 | 25302 ft | 442 kts | 129° |
| 2026-04-25 01:43 | -34.67503 | 152.28982 | 25595 ft | 444 kts | 129° |
| 2026-04-25 01:43 | -34.69472 | 152.31881 | 25902 ft | 445 kts | 129° |
| 2026-04-25 01:43 | -34.71446 | 152.34789 | 26192 ft | 447 kts | 129° |
| 2026-04-25 01:44 | -34.73428 | 152.37711 | 26474 ft | 449 kts | 129° |
| 2026-04-25 01:44 | -34.75386 | 152.40600 | 26754 ft | 450 kts | 129° |
| 2026-04-25 01:44 | -34.77379 | 152.43543 | 27011 ft | 452 kts | 129° |
| 2026-04-25 01:44 | -34.79379 | 152.46501 | 27265 ft | 453 kts | 129° |
| 2026-04-25 01:45 | -34.81386 | 152.49468 | 27509 ft | 455 kts | 129° |
| 2026-04-25 01:45 | -34.83397 | 152.52447 | 27799 ft | 455 kts | 129° |
| 2026-04-25 01:45 | -34.85405 | 152.55423 | 28186 ft | 454 kts | 129° |
| 2026-04-25 01:45 | -34.87403 | 152.58385 | 28615 ft | 451 kts | 129° |
| 2026-04-25 01:46 | -34.89387 | 152.61331 | 29030 ft | 449 kts | 129° |
| 2026-04-25 01:46 | -34.91368 | 152.64273 | 29370 ft | 449 kts | 129° |
| 2026-04-25 01:46 | -34.93348 | 152.67217 | 29701 ft | 449 kts | 129° |
| 2026-04-25 01:46 | -34.95326 | 152.70161 | 30074 ft | 448 kts | 129° |
| 2026-04-25 01:47 | -34.97295 | 152.73093 | 30473 ft | 446 kts | 129° |
| 2026-04-25 01:47 | -34.99255 | 152.76015 | 30797 ft | 445 kts | 129° |
| 2026-04-25 01:47 | -35.01214 | 152.78938 | 31055 ft | 445 kts | 130° |
| 2026-04-25 01:47 | -35.03174 | 152.81865 | 31316 ft | 445 kts | 130° |
| 2026-04-25 01:48 | -35.05131 | 152.84788 | 31604 ft | 444 kts | 130° |
| 2026-04-25 01:48 | -35.07082 | 152.87708 | 31905 ft | 443 kts | 130° |
| 2026-04-25 01:48 | -35.09030 | 152.90622 | 32177 ft | 443 kts | 130° |
| 2026-04-25 01:48 | -35.10977 | 152.93539 | 32433 ft | 443 kts | 130° |
| 2026-04-25 01:49 | -35.12920 | 152.96452 | 32707 ft | 442 kts | 130° |
| 2026-04-25 01:49 | -35.14860 | 152.99364 | 32977 ft | 442 kts | 130° |
| 2026-04-25 01:49 | -35.16796 | 153.02272 | 33241 ft | 441 kts | 130° |
| 2026-04-25 01:49 | -35.18731 | 153.05180 | 33498 ft | 441 kts | 130° |
| 2026-04-25 01:50 | -35.20663 | 153.08087 | 33753 ft | 440 kts | 130° |
| 2026-04-25 01:50 | -35.22593 | 153.10993 | 34016 ft | 440 kts | 130° |
| 2026-04-25 01:50 | -35.24518 | 153.13894 | 34270 ft | 439 kts | 130° |
| 2026-04-25 01:50 | -35.26442 | 153.16795 | 34500 ft | 439 kts | 130° |
| 2026-04-25 01:51 | -35.28363 | 153.19694 | 34707 ft | 438 kts | 130° |
| 2026-04-25 01:51 | -35.30282 | 153.22594 | 34925 ft | 438 kts | 130° |
| 2026-04-25 01:51 | -35.32195 | 153.25487 | 35135 ft | 437 kts | 130° |
| 2026-04-25 01:51 | -35.34108 | 153.28381 | 35353 ft | 436 kts | 130° |
| 2026-04-25 01:52 | -35.37935 | 153.34179 | 35452 ft | 439 kts | 130° |
| 2026-04-25 01:52 | -35.41763 | 153.39988 | 35446 ft | 436 kts | 130° |
| 2026-04-25 01:53 | -35.45563 | 153.45766 | 35450 ft | 434 kts | 130° |
| 2026-04-25 01:53 | -35.49339 | 153.51516 | 35455 ft | 432 kts | 130° |
| 2026-04-25 01:54 | -35.53103 | 153.57257 | 35456 ft | 431 kts | 130° |
| 2026-04-25 01:54 | -35.56859 | 153.62996 | 35455 ft | 432 kts | 130° |
| 2026-04-25 01:55 | -35.60623 | 153.68755 | 35464 ft | 433 kts | 130° |
| 2026-04-25 01:55 | -35.64396 | 153.74538 | 35462 ft | 434 kts | 130° |
| 2026-04-25 01:56 | -35.68178 | 153.80346 | 35461 ft | 436 kts | 130° |
| 2026-04-25 01:56 | -35.71973 | 153.86183 | 35458 ft | 437 kts | 130° |
| 2026-04-25 01:57 | -35.77680 | 153.94979 | 35462 ft | 439 kts | 129° |
| 2026-04-25 01:58 | -35.81490 | 154.00865 | 35458 ft | 439 kts | 129° |
| 2026-04-25 01:58 | -35.85272 | 154.06718 | 35459 ft | 439 kts | 129° |
| 2026-04-25 01:59 | -35.89072 | 154.12608 | 35461 ft | 439 kts | 129° |
| 2026-04-25 01:59 | -35.92870 | 154.18505 | 35462 ft | 439 kts | 129° |
| 2026-04-25 02:00 | -35.96661 | 154.24402 | 35462 ft | 438 kts | 129° |
| 2026-04-25 02:00 | -36.00444 | 154.30295 | 35462 ft | 438 kts | 129° |
| 2026-04-25 02:01 | -36.04339 | 154.36061 | 35451 ft | 436 kts | 136° |
| 2026-04-25 02:01 | -36.08636 | 154.41154 | 35456 ft | 435 kts | 137° |
| 2026-04-25 02:02 | -36.13036 | 154.46297 | 35466 ft | 435 kts | 137° |
| 2026-04-25 02:02 | -36.17414 | 154.51460 | 35464 ft | 435 kts | 137° |
| 2026-04-25 02:03 | -36.21781 | 154.56647 | 35465 ft | 435 kts | 136° |
| 2026-04-25 02:03 | -36.26141 | 154.61845 | 35466 ft | 435 kts | 136° |
| 2026-04-25 02:04 | -36.30507 | 154.67059 | 35468 ft | 436 kts | 136° |
| 2026-04-25 02:04 | -36.34871 | 154.72279 | 35466 ft | 436 kts | 136° |
| 2026-04-25 02:05 | -36.39244 | 154.77519 | 35467 ft | 437 kts | 136° |
| 2026-04-25 02:05 | -36.43619 | 154.82769 | 35466 ft | 438 kts | 136° |
| 2026-04-25 02:06 | -36.47996 | 154.88030 | 35465 ft | 438 kts | 136° |
| 2026-04-25 02:06 | -36.52379 | 154.93308 | 35469 ft | 439 kts | 136° |
| 2026-04-25 02:07 | -36.56732 | 154.98558 | 35469 ft | 439 kts | 136° |
| 2026-04-25 02:07 | -36.61117 | 155.03854 | 35465 ft | 439 kts | 136° |
| 2026-04-25 02:08 | -36.65503 | 155.09163 | 35468 ft | 440 kts | 136° |
| 2026-04-25 02:08 | -36.69887 | 155.14476 | 35469 ft | 440 kts | 136° |
| 2026-04-25 02:09 | -36.74269 | 155.19795 | 35472 ft | 440 kts | 136° |
| 2026-04-25 02:09 | -36.78651 | 155.25124 | 35471 ft | 440 kts | 136° |
| 2026-04-25 02:10 | -36.83029 | 155.30459 | 35476 ft | 440 kts | 136° |
| 2026-04-25 02:10 | -36.87407 | 155.35801 | 35473 ft | 440 kts | 136° |
| 2026-04-25 02:11 | -36.91779 | 155.41145 | 35476 ft | 440 kts | 136° |
| 2026-04-25 02:11 | -36.96151 | 155.46498 | 35474 ft | 440 kts | 136° |
| 2026-04-25 02:12 | -37.00519 | 155.51855 | 35474 ft | 440 kts | 136° |
| 2026-04-25 02:12 | -37.04887 | 155.57222 | 35476 ft | 440 kts | 136° |
| 2026-04-25 02:13 | -37.09256 | 155.62598 | 35479 ft | 440 kts | 136° |
| 2026-04-25 02:13 | -37.13622 | 155.67981 | 35478 ft | 440 kts | 136° |
| 2026-04-25 02:14 | -37.17987 | 155.73370 | 35475 ft | 441 kts | 136° |
| 2026-04-25 02:14 | -37.22351 | 155.78769 | 35474 ft | 441 kts | 136° |
| 2026-04-25 02:15 | -37.26717 | 155.84179 | 35472 ft | 441 kts | 136° |
| 2026-04-25 02:15 | -37.31084 | 155.89600 | 35478 ft | 441 kts | 136° |
| 2026-04-25 02:16 | -37.35451 | 155.95030 | 35479 ft | 442 kts | 136° |
| 2026-04-25 02:16 | -37.39819 | 156.00470 | 35476 ft | 442 kts | 136° |
| 2026-04-25 02:17 | -37.44184 | 156.05917 | 35476 ft | 442 kts | 136° |
| 2026-04-25 02:17 | -37.48550 | 156.11374 | 35481 ft | 442 kts | 136° |
| 2026-04-25 02:18 | -37.52918 | 156.16843 | 35479 ft | 443 kts | 136° |
| 2026-04-25 02:18 | -37.57254 | 156.22282 | 35477 ft | 443 kts | 136° |
| 2026-04-25 02:19 | -37.60912 | 156.26878 | 35476 ft | 443 kts | 136° |
| 2026-04-25 02:19 | -37.65278 | 156.32371 | 35477 ft | 443 kts | 136° |
| 2026-04-25 02:20 | -37.69642 | 156.37873 | 35478 ft | 444 kts | 136° |
| 2026-04-25 02:20 | -37.74007 | 156.43385 | 35475 ft | 444 kts | 136° |
| 2026-04-25 02:21 | -37.78373 | 156.48907 | 35480 ft | 444 kts | 136° |
| 2026-04-25 02:21 | -37.82739 | 156.54441 | 35478 ft | 444 kts | 136° |
| 2026-04-25 02:22 | -37.87105 | 156.59983 | 35477 ft | 445 kts | 135° |
| 2026-04-25 02:22 | -37.91470 | 156.65535 | 35484 ft | 445 kts | 135° |
| 2026-04-25 02:23 | -37.95836 | 156.71097 | 35482 ft | 445 kts | 135° |
| 2026-04-25 02:23 | -38.00173 | 156.76633 | 35480 ft | 446 kts | 135° |
| 2026-04-25 02:24 | -38.04538 | 156.82214 | 35482 ft | 446 kts | 135° |
| 2026-04-25 02:24 | -38.08905 | 156.87807 | 35479 ft | 446 kts | 135° |
| 2026-04-25 02:25 | -38.13267 | 156.93405 | 35482 ft | 446 kts | 135° |
| 2026-04-25 02:25 | -38.17630 | 156.99014 | 35481 ft | 446 kts | 135° |
| 2026-04-25 02:26 | -38.21991 | 157.04630 | 35483 ft | 446 kts | 135° |
| 2026-04-25 02:26 | -38.26355 | 157.10260 | 35478 ft | 447 kts | 135° |
| 2026-04-25 02:27 | -38.30715 | 157.15897 | 35480 ft | 447 kts | 135° |
| 2026-04-25 02:27 | -38.35076 | 157.21543 | 35481 ft | 447 kts | 135° |
| 2026-04-25 02:28 | -38.39438 | 157.27203 | 35483 ft | 448 kts | 135° |
| 2026-04-25 02:28 | -38.43800 | 157.32872 | 35482 ft | 448 kts | 135° |
| 2026-04-25 02:29 | -38.48164 | 157.38556 | 35484 ft | 448 kts | 135° |
| 2026-04-25 02:29 | -38.52526 | 157.44246 | 35483 ft | 449 kts | 135° |
| 2026-04-25 02:30 | -38.56891 | 157.49950 | 35483 ft | 449 kts | 135° |
| 2026-04-25 02:30 | -38.61258 | 157.55667 | 35483 ft | 449 kts | 135° |
| 2026-04-25 02:31 | -38.65593 | 157.61353 | 35480 ft | 450 kts | 135° |
| 2026-04-25 02:31 | -38.69928 | 157.67049 | 35483 ft | 450 kts | 135° |
| 2026-04-25 02:32 | -38.74295 | 157.72799 | 35477 ft | 450 kts | 135° |
| 2026-04-25 02:32 | -38.78583 | 157.78447 | 35479 ft | 450 kts | 135° |
| 2026-04-25 02:33 | -38.82943 | 157.84219 | 35480 ft | 451 kts | 135° |
| 2026-04-25 02:33 | -38.87305 | 157.90000 | 35480 ft | 451 kts | 135° |
| 2026-04-25 02:34 | -38.91666 | 157.95786 | 35478 ft | 451 kts | 135° |
| 2026-04-25 02:34 | -38.96026 | 158.01581 | 35480 ft | 451 kts | 135° |
| 2026-04-25 02:35 | -39.00387 | 158.07388 | 35480 ft | 452 kts | 135° |
| 2026-04-25 02:35 | -39.04750 | 158.13208 | 35475 ft | 452 kts | 135° |
| 2026-04-25 02:36 | -39.09108 | 158.19035 | 35478 ft | 452 kts | 134° |
| 2026-04-25 02:36 | -39.13465 | 158.24870 | 35477 ft | 452 kts | 134° |
| 2026-04-25 02:37 | -39.17823 | 158.30719 | 35478 ft | 452 kts | 134° |
| 2026-04-25 02:37 | -39.22178 | 158.36574 | 35478 ft | 453 kts | 134° |
| 2026-04-25 02:38 | -39.26535 | 158.42443 | 35480 ft | 453 kts | 134° |
| 2026-04-25 02:38 | -39.30860 | 158.48280 | 35480 ft | 453 kts | 134° |
| 2026-04-25 02:39 | -39.35186 | 158.54131 | 35476 ft | 453 kts | 134° |
| 2026-04-25 02:39 | -39.39536 | 158.60024 | 35473 ft | 453 kts | 134° |
| 2026-04-25 02:40 | -39.43890 | 158.65933 | 35474 ft | 454 kts | 134° |
| 2026-04-25 02:40 | -39.48243 | 158.71855 | 35474 ft | 454 kts | 134° |
| 2026-04-25 02:41 | -39.52592 | 158.77782 | 35477 ft | 454 kts | 134° |
| 2026-04-25 02:41 | -39.56944 | 158.83724 | 35475 ft | 455 kts | 134° |
| 2026-04-25 02:42 | -39.61295 | 158.89675 | 35474 ft | 455 kts | 134° |
| 2026-04-25 02:42 | -39.65646 | 158.95640 | 35474 ft | 455 kts | 134° |
| 2026-04-25 02:43 | -39.70001 | 159.01621 | 35479 ft | 456 kts | 134° |
| 2026-04-25 02:43 | -39.74357 | 159.07615 | 35470 ft | 456 kts | 134° |
| 2026-04-25 02:44 | -39.78711 | 159.13619 | 35465 ft | 457 kts | 134° |
| 2026-04-25 02:44 | -39.83071 | 159.19644 | 35473 ft | 457 kts | 134° |
| 2026-04-25 02:45 | -39.87431 | 159.25679 | 35474 ft | 458 kts | 134° |
| 2026-04-25 02:45 | -39.91767 | 159.31693 | 35474 ft | 459 kts | 134° |
| 2026-04-25 02:46 | -39.96133 | 159.37763 | 35464 ft | 459 kts | 134° |
| 2026-04-25 02:46 | -40.00501 | 159.43845 | 35462 ft | 460 kts | 134° |
| 2026-04-25 02:47 | -40.04872 | 159.49944 | 35470 ft | 460 kts | 134° |
| 2026-04-25 02:47 | -40.09246 | 159.56060 | 35468 ft | 461 kts | 134° |
| 2026-04-25 02:48 | -40.13620 | 159.62188 | 35461 ft | 461 kts | 134° |
| 2026-04-25 02:48 | -40.17997 | 159.68333 | 35466 ft | 462 kts | 134° |
| 2026-04-25 02:49 | -40.22374 | 159.74490 | 35456 ft | 462 kts | 134° |
| 2026-04-25 02:49 | -40.26754 | 159.80665 | 35466 ft | 463 kts | 134° |
| 2026-04-25 02:50 | -40.31132 | 159.86849 | 35454 ft | 463 kts | 134° |
| 2026-04-25 02:50 | -40.35513 | 159.93051 | 35466 ft | 464 kts | 134° |
| 2026-04-25 02:51 | -40.39896 | 159.99268 | 35462 ft | 464 kts | 134° |
| 2026-04-25 02:51 | -40.44276 | 160.05492 | 35455 ft | 464 kts | 134° |
| 2026-04-25 02:52 | -40.48658 | 160.11733 | 35454 ft | 465 kts | 134° |
| 2026-04-25 02:52 | -40.53036 | 160.17981 | 35449 ft | 465 kts | 134° |
| 2026-04-25 02:53 | -40.57414 | 160.24243 | 35455 ft | 465 kts | 134° |
| 2026-04-25 02:53 | -40.61793 | 160.30518 | 35452 ft | 465 kts | 134° |
| 2026-04-25 02:54 | -40.66172 | 160.36807 | 35451 ft | 466 kts | 134° |
| 2026-04-25 02:54 | -40.70547 | 160.43104 | 35447 ft | 466 kts | 134° |
| 2026-04-25 02:55 | -40.74919 | 160.49409 | 35450 ft | 466 kts | 133° |
| 2026-04-25 02:55 | -40.79294 | 160.55732 | 35445 ft | 467 kts | 133° |
| 2026-04-25 02:56 | -40.83670 | 160.62065 | 35447 ft | 467 kts | 133° |
| 2026-04-25 02:56 | -40.88043 | 160.68412 | 35445 ft | 467 kts | 133° |
| 2026-04-25 02:57 | -40.92413 | 160.74768 | 35439 ft | 467 kts | 133° |
| 2026-04-25 02:57 | -40.96783 | 160.81142 | 35438 ft | 468 kts | 133° |
| 2026-04-25 02:58 | -41.01155 | 160.87524 | 35440 ft | 468 kts | 133° |
| 2026-04-25 02:58 | -41.05497 | 160.93878 | 35443 ft | 468 kts | 133° |
| 2026-04-25 02:59 | -41.09870 | 161.00285 | 35444 ft | 469 kts | 133° |
| 2026-04-25 02:59 | -41.14239 | 161.06704 | 35441 ft | 469 kts | 133° |
| 2026-04-25 03:00 | -41.18600 | 161.13144 | 35436 ft | 469 kts | 133° |
| 2026-04-25 03:00 | -41.22963 | 161.19589 | 35436 ft | 469 kts | 133° |
| 2026-04-25 03:01 | -41.27330 | 161.26039 | 35436 ft | 470 kts | 133° |
| 2026-04-25 03:01 | -41.31692 | 161.32506 | 35434 ft | 470 kts | 133° |
| 2026-04-25 03:02 | -41.36048 | 161.38991 | 35432 ft | 470 kts | 133° |
| 2026-04-25 03:02 | -41.40407 | 161.45487 | 35433 ft | 470 kts | 133° |
| 2026-04-25 03:03 | -41.44768 | 161.51996 | 35428 ft | 471 kts | 133° |
| 2026-04-25 03:03 | -41.49127 | 161.58513 | 35428 ft | 471 kts | 133° |
| 2026-04-25 03:04 | -41.53484 | 161.65043 | 35428 ft | 471 kts | 133° |
| 2026-04-25 03:04 | -41.57814 | 161.71547 | 35427 ft | 472 kts | 133° |
| 2026-04-25 03:05 | -41.64343 | 161.81381 | 35424 ft | 472 kts | 133° |
| 2026-04-25 03:05 | -41.68695 | 161.87954 | 35424 ft | 472 kts | 133° |
| 2026-04-25 03:06 | -41.73045 | 161.94540 | 35425 ft | 472 kts | 133° |
| 2026-04-25 03:06 | -41.77394 | 162.01138 | 35420 ft | 473 kts | 133° |
| 2026-04-25 03:07 | -41.81743 | 162.07751 | 35420 ft | 473 kts | 133° |
| 2026-04-25 03:07 | -41.85355 | 162.13248 | 35417 ft | 473 kts | 133° |
| 2026-04-25 03:08 | -41.89698 | 162.19881 | 35413 ft | 473 kts | 133° |
| 2026-04-25 03:08 | -41.94040 | 162.26529 | 35414 ft | 473 kts | 133° |
| 2026-04-25 03:09 | -41.98379 | 162.33185 | 35411 ft | 474 kts | 133° |
| 2026-04-25 03:09 | -42.02720 | 162.39851 | 35411 ft | 474 kts | 133° |
| 2026-04-25 03:10 | -42.07062 | 162.46525 | 35411 ft | 474 kts | 133° |
| 2026-04-25 03:10 | -42.11395 | 162.53219 | 35410 ft | 474 kts | 133° |
| 2026-04-25 03:11 | -42.15726 | 162.59931 | 35406 ft | 475 kts | 133° |
| 2026-04-25 03:11 | -42.20054 | 162.66663 | 35403 ft | 475 kts | 133° |
| 2026-04-25 03:12 | -42.24385 | 162.73402 | 35400 ft | 476 kts | 133° |
| 2026-04-25 03:12 | -42.28720 | 162.80153 | 35401 ft | 476 kts | 133° |
| 2026-04-25 03:13 | -42.33053 | 162.86919 | 35397 ft | 476 kts | 133° |
| 2026-04-25 03:13 | -42.37383 | 162.93697 | 35397 ft | 477 kts | 133° |
| 2026-04-25 03:14 | -42.41714 | 163.00492 | 35394 ft | 477 kts | 133° |
| 2026-04-25 03:14 | -42.45955 | 163.07413 | 35393 ft | 478 kts | 131° |
| 2026-04-25 03:15 | -42.50137 | 163.14404 | 35391 ft | 478 kts | 131° |
| 2026-04-25 03:15 | -42.54326 | 163.21410 | 35389 ft | 478 kts | 131° |
| 2026-04-25 03:16 | -42.58520 | 163.28408 | 35385 ft | 478 kts | 131° |
| 2026-04-25 03:16 | -42.62687 | 163.35362 | 35385 ft | 478 kts | 131° |
| 2026-04-25 03:17 | -42.66881 | 163.42377 | 35384 ft | 478 kts | 131° |
| 2026-04-25 03:17 | -42.71069 | 163.49401 | 35384 ft | 478 kts | 131° |
| 2026-04-25 03:18 | -42.75255 | 163.56438 | 35380 ft | 479 kts | 131° |
| 2026-04-25 03:18 | -42.79440 | 163.63491 | 35375 ft | 479 kts | 131° |
| 2026-04-25 03:19 | -42.83619 | 163.70551 | 35380 ft | 479 kts | 131° |
| 2026-04-25 03:19 | -42.87796 | 163.77623 | 35374 ft | 479 kts | 131° |
| 2026-04-25 03:20 | -42.91970 | 163.84708 | 35370 ft | 479 kts | 131° |
| 2026-04-25 03:20 | -42.96142 | 163.91808 | 35371 ft | 479 kts | 131° |
| 2026-04-25 03:21 | -43.00309 | 163.98915 | 35370 ft | 480 kts | 131° |
| 2026-04-25 03:21 | -43.04475 | 164.06038 | 35366 ft | 480 kts | 131° |
| 2026-04-25 03:22 | -43.08639 | 164.13173 | 35363 ft | 480 kts | 131° |
| 2026-04-25 03:22 | -43.12799 | 164.20321 | 35363 ft | 480 kts | 131° |
| 2026-04-25 03:23 | -43.16955 | 164.27478 | 35362 ft | 480 kts | 131° |
| 2026-04-25 03:23 | -43.21080 | 164.34600 | 35355 ft | 480 kts | 131° |
| 2026-04-25 03:24 | -43.25232 | 164.41787 | 35358 ft | 481 kts | 131° |
| 2026-04-25 03:24 | -43.29381 | 164.48984 | 35359 ft | 481 kts | 131° |
| 2026-04-25 03:25 | -43.33523 | 164.56188 | 35354 ft | 481 kts | 131° |
| 2026-04-25 03:25 | -43.37665 | 164.63408 | 35351 ft | 481 kts | 131° |
| 2026-04-25 03:26 | -43.41800 | 164.70635 | 35350 ft | 481 kts | 131° |
| 2026-04-25 03:26 | -43.45932 | 164.77875 | 35347 ft | 481 kts | 131° |
| 2026-04-25 03:27 | -43.50062 | 164.85128 | 35346 ft | 481 kts | 131° |
| 2026-04-25 03:27 | -43.54185 | 164.92389 | 35344 ft | 481 kts | 131° |
| 2026-04-25 03:28 | -43.58307 | 164.99665 | 35345 ft | 481 kts | 131° |
| 2026-04-25 03:28 | -43.62424 | 165.06950 | 35343 ft | 481 kts | 131° |
| 2026-04-25 03:29 | -43.66534 | 165.14241 | 35341 ft | 481 kts | 131° |
| 2026-04-25 03:29 | -43.70645 | 165.21552 | 35335 ft | 482 kts | 131° |
| 2026-04-25 03:30 | -43.74719 | 165.28815 | 35338 ft | 481 kts | 131° |
| 2026-04-25 03:30 | -43.78848 | 165.36196 | 35334 ft | 481 kts | 131° |
| 2026-04-25 03:31 | -43.82944 | 165.43534 | 35333 ft | 481 kts | 131° |
| 2026-04-25 03:31 | -43.87005 | 165.50829 | 35334 ft | 481 kts | 131° |
| 2026-04-25 03:32 | -43.91090 | 165.58186 | 35332 ft | 481 kts | 130° |
| 2026-04-25 03:32 | -43.95169 | 165.65551 | 35327 ft | 482 kts | 130° |
| 2026-04-25 03:33 | -43.99246 | 165.72932 | 35328 ft | 482 kts | 130° |
| 2026-04-25 03:33 | -44.03317 | 165.80319 | 35325 ft | 482 kts | 130° |
| 2026-04-25 03:34 | -44.07387 | 165.87724 | 35328 ft | 482 kts | 130° |
| 2026-04-25 03:34 | -44.11452 | 165.95138 | 35325 ft | 482 kts | 130° |
| 2026-04-25 03:35 | -44.15513 | 166.02558 | 35321 ft | 482 kts | 130° |
| 2026-04-25 03:35 | -44.19584 | 166.09987 | 35324 ft | 482 kts | 130° |
| 2026-04-25 03:36 | -44.23655 | 166.17430 | 35322 ft | 483 kts | 130° |
| 2026-04-25 03:36 | -44.27719 | 166.24884 | 35320 ft | 483 kts | 130° |
| 2026-04-25 03:37 | -44.31783 | 166.32359 | 35320 ft | 484 kts | 130° |
| 2026-04-25 03:37 | -44.35848 | 166.39855 | 35318 ft | 484 kts | 130° |
| 2026-04-25 03:38 | -44.39909 | 166.47365 | 35315 ft | 484 kts | 130° |
| 2026-04-25 03:38 | -44.43970 | 166.54893 | 35310 ft | 485 kts | 130° |
| 2026-04-25 03:39 | -44.48026 | 166.62433 | 35312 ft | 485 kts | 130° |
| 2026-04-25 03:39 | -44.52057 | 166.69945 | 35310 ft | 486 kts | 130° |
| 2026-04-25 03:40 | -44.56112 | 166.77522 | 35310 ft | 486 kts | 130° |
| 2026-04-25 03:40 | -44.60076 | 166.85210 | 35294 ft | 491 kts | 120° |
| 2026-04-25 03:41 | -44.61310 | 166.89688 | 35304 ft | 495 kts | 105° |
| 2026-04-25 03:41 | -44.61674 | 166.94531 | 34720 ft | 505 kts | 87° |
| 2026-04-25 03:41 | -44.61441 | 166.99433 | 34112 ft | 503 kts | 86° |
| 2026-04-25 03:41 | -44.61178 | 167.04328 | 33348 ft | 503 kts | 86° |
| 2026-04-25 03:42 | -44.60935 | 167.09218 | 32639 ft | 502 kts | 86° |
| 2026-04-25 03:42 | -44.60721 | 167.14114 | 31900 ft | 503 kts | 87° |
| 2026-04-25 03:42 | -44.60529 | 167.19013 | 31156 ft | 503 kts | 87° |
| 2026-04-25 03:42 | -44.60346 | 167.23909 | 30392 ft | 503 kts | 87° |
| 2026-04-25 03:43 | -44.60161 | 167.28817 | 29475 ft | 504 kts | 87° |
| 2026-04-25 03:43 | -44.59969 | 167.33727 | 28573 ft | 504 kts | 88° |
| 2026-04-25 03:43 | -44.59945 | 167.38631 | 27857 ft | 500 kts | 93° |
| 2026-04-25 03:43 | -44.60175 | 167.43456 | 27272 ft | 493 kts | 96° |
| 2026-04-25 03:44 | -44.60509 | 167.48218 | 26641 ft | 488 kts | 97° |
| 2026-04-25 03:44 | -44.60857 | 167.52922 | 26028 ft | 483 kts | 97° |
| 2026-04-25 03:44 | -44.61181 | 167.57600 | 25414 ft | 479 kts | 96° |
| 2026-04-25 03:44 | -44.61472 | 167.62236 | 24804 ft | 475 kts | 96° |
| 2026-04-25 03:45 | -44.61737 | 167.66847 | 24179 ft | 473 kts | 96° |
| 2026-04-25 03:45 | -44.61986 | 167.71433 | 23506 ft | 470 kts | 96° |
| 2026-04-25 03:45 | -44.62227 | 167.75991 | 22821 ft | 466 kts | 96° |
| 2026-04-25 03:45 | -44.62463 | 167.80502 | 22209 ft | 461 kts | 96° |
| 2026-04-25 03:46 | -44.62695 | 167.84979 | 21567 ft | 457 kts | 95° |
| 2026-04-25 03:46 | -44.62912 | 167.89391 | 21008 ft | 449 kts | 96° |
| 2026-04-25 03:46 | -44.63150 | 167.93741 | 20417 ft | 445 kts | 96° |
| 2026-04-25 03:46 | -44.63383 | 167.98060 | 19783 ft | 442 kts | 96° |
| 2026-04-25 03:47 | -44.63606 | 168.02350 | 19256 ft | 439 kts | 96° |
| 2026-04-25 03:47 | -44.63823 | 168.06616 | 18657 ft | 436 kts | 95° |
| 2026-04-25 03:47 | -44.64038 | 168.10856 | 17933 ft | 434 kts | 96° |
| 2026-04-25 03:47 | -44.64247 | 168.15059 | 17397 ft | 430 kts | 96° |
| 2026-04-25 03:48 | -44.64452 | 168.19195 | 17156 ft | 418 kts | 96° |
| 2026-04-25 03:48 | -44.64649 | 168.23198 | 16946 ft | 405 kts | 96° |
| 2026-04-25 03:48 | -44.64841 | 168.27080 | 16813 ft | 392 kts | 96° |
| 2026-04-25 03:48 | -44.65026 | 168.30853 | 16610 ft | 381 kts | 96° |
| 2026-04-25 03:49 | -44.65204 | 168.34514 | 16478 ft | 371 kts | 96° |
| 2026-04-25 03:49 | -44.65381 | 168.38091 | 16337 ft | 362 kts | 98° |
| 2026-04-25 03:49 | -44.66025 | 168.41411 | 16174 ft | 345 kts | 121° |
| 2026-04-25 03:49 | -44.67340 | 168.44132 | 15882 ft | 334 kts | 140° |
| 2026-04-25 03:50 | -44.69065 | 168.46197 | 15597 ft | 328 kts | 147° |
| 2026-04-25 03:50 | -44.70880 | 168.48142 | 15230 ft | 327 kts | 148° |
| 2026-04-25 03:50 | -44.72698 | 168.50069 | 14889 ft | 327 kts | 147° |
| 2026-04-25 03:50 | -44.74505 | 168.52013 | 14554 ft | 326 kts | 147° |
| 2026-04-25 03:51 | -44.76306 | 168.53976 | 14049 ft | 330 kts | 146° |
| 2026-04-25 03:51 | -44.78114 | 168.55958 | 13649 ft | 329 kts | 146° |
| 2026-04-25 03:51 | -44.79983 | 168.57783 | 13239 ft | 324 kts | 154° |
| 2026-04-25 03:51 | -44.81950 | 168.59275 | 12909 ft | 319 kts | 157° |
| 2026-04-25 03:52 | -44.83943 | 168.60737 | 12585 ft | 318 kts | 157° |
| 2026-04-25 03:52 | -44.85863 | 168.62183 | 12219 ft | 317 kts | 156° |
| 2026-04-25 03:52 | -44.87784 | 168.63676 | 11861 ft | 315 kts | 152° |
| 2026-04-25 03:52 | -44.89389 | 168.65807 | 11501 ft | 323 kts | 127° |
| 2026-04-25 03:53 | -44.90243 | 168.68698 | 11405 ft | 320 kts | 105° |
| 2026-04-25 03:53 | -44.90459 | 168.71866 | 10934 ft | 326 kts | 95° |
| 2026-04-25 03:53 | -44.90531 | 168.75060 | 10580 ft | 325 kts | 94° |
| 2026-04-25 03:53 | -44.90597 | 168.78233 | 10274 ft | 322 kts | 95° |
| 2026-04-25 03:54 | -44.90681 | 168.81350 | 10091 ft | 315 kts | 95° |
| 2026-04-25 03:54 | -44.90774 | 168.84394 | 9915 ft | 308 kts | 96° |
| 2026-04-25 03:54 | -44.90870 | 168.87399 | 9592 ft | 304 kts | 96° |
| 2026-04-25 03:54 | -44.90966 | 168.90361 | 9293 ft | 301 kts | 96° |
| 2026-04-25 03:55 | -44.91059 | 168.93297 | 9046 ft | 299 kts | 96° |
| 2026-04-25 03:55 | -44.91151 | 168.96216 | 8754 ft | 297 kts | 95° |
| 2026-04-25 03:55 | -44.91338 | 168.99101 | 8423 ft | 295 kts | 105° |
| 2026-04-25 03:55 | -44.92039 | 169.01797 | 8042 ft | 292 kts | 124° |
| 2026-04-25 03:56 | -44.93259 | 169.04024 | 7775 ft | 281 kts | 141° |
| 2026-04-25 03:56 | -44.94800 | 169.05647 | 7405 ft | 278 kts | 158° |
| 2026-04-25 03:56 | -44.95955 | 169.06345 | 7371 ft | 268 kts | 167° |
| 2026-04-25 03:56 | -44.98408 | 169.06963 | 6641 ft | 271 kts | 184° |
| 2026-04-25 03:57 | -44.99635 | 169.06769 | 6321 ft | 265 kts | 198° |
| 2026-04-25 03:57 | -45.01283 | 169.05740 | 5930 ft | 255 kts | 217° |
| 2026-04-25 03:57 | -45.02533 | 169.04042 | 5594 ft | 246 kts | 234° |
| 2026-04-25 03:57 | -45.03331 | 169.01970 | 5388 ft | 234 kts | 251° |
| 2026-04-25 03:58 | -45.03684 | 168.99806 | 5312 ft | 221 kts | 265° |
| 2026-04-25 03:58 | -45.03603 | 168.97686 | 5034 ft | 218 kts | 279° |
| 2026-04-25 03:58 | -45.03121 | 168.95590 | 4458 ft | 229 kts | 292° |
| 2026-04-25 03:58 | -45.02332 | 168.93612 | 4038 ft | 232 kts | 300° |
| 2026-04-25 03:59 | -45.01462 | 168.91680 | 3673 ft | 234 kts | 300° |
| 2026-04-25 03:59 | -45.00621 | 168.89795 | 3536 ft | 219 kts | 300° |
| 2026-04-25 03:59 | -44.99971 | 168.87951 | 3430 ft | 198 kts | 285° |
| 2026-04-25 03:59 | -44.99829 | 168.86119 | 3179 ft | 183 kts | 264° |
| 2026-04-25 04:00 | -45.00086 | 168.84349 | 2701 ft | 184 kts | 258° |
| 2026-04-25 04:00 | -45.00240 | 168.83348 | 2450 ft | 181 kts | 258° |
| 2026-04-25 04:00 | -45.00483 | 168.81703 | 2138 ft | 172 kts | 257° |
| 2026-04-25 04:01 | -45.00771 | 168.80132 | 1915 ft | 156 kts | 254° |
| 2026-04-25 04:01 | -45.01075 | 168.78726 | 1738 ft | 148 kts | 255° |
| 2026-04-25 04:01 | -45.01390 | 168.77420 | 1484 ft | 137 kts | 257° |
| 2026-04-25 04:01 | -45.01600 | 168.76125 | 1246 ft | 133 kts | 258° |
| 2026-04-25 04:02 | -45.01787 | 168.74926 | 1165 ft | 109 kts | 257° |
| 2026-04-25 04:02 | -45.01891 | 168.74267 | 1168 ft | 37 kts | 258° |
| 2026-04-25 04:02 | -45.01940 | 168.74121 | 1165 ft | 12 kts | 205° |
| 2026-04-25 04:02 | -45.02018 | 168.74072 | 1162 ft | 12 kts | 204° |
| 2026-04-25 04:03 | -45.02092 | 168.74080 | 1161 ft | 12 kts | 130° |
| 2026-04-25 04:03 | -45.02135 | 168.74164 | 1162 ft | 10 kts | 147° |
| 2026-04-25 04:03 | -45.02168 | 168.74182 | 1162 ft | 0 kts | 161° |
| 2026-04-25 04:03 | -45.02187 | 168.74171 | 1160 ft | 3 kts | 233° |
| 2026-04-25 04:04 | -45.02195 | 168.74136 | 1163 ft | 4 kts | 251° |
| 2026-04-25 04:04 | -45.02200 | 168.74116 | 1163 ft | 2 kts | 251° |
| 2026-04-25 04:04 | -45.02200 | 168.74115 | 1161 ft | 0 kts | 251° |